Time;durP1;ratioP1;P1;durP2;ratioP2;P2;SDS_P1;SDS_P2;PMS_P1;PMS_P2;Temp;Humidity;BMP_temperature;BMP_pressure;BME280_temperature;BME280_humidity;BME280_pressure;Samples;Min_cycle;Max_cycle;Signal;HPM_P1;HPM_P2
2023/04/14 00:00:54;;;;;;;5.00;4.10;;;;;;;14.36;49.78;94130.13;5030016;28;20200;-69
2023/04/14 00:03:20;;;;;;;4.90;3.47;;;;;;;14.37;49.12;94126.66;5029921;28;20208;-69
2023/04/14 00:05:47;;;;;;;5.30;4.18;;;;;;;14.29;49.50;94128.00;5029857;28;20199;-70
2023/04/14 00:08:14;;;;;;;4.30;3.20;;;;;;;14.21;49.76;94127.66;5030289;28;20230;-69
2023/04/14 00:10:42;;;;;;;4.85;4.28;;;;;;;14.22;49.67;94128.47;5031679;28;20219;-69
2023/04/14 00:13:09;;;;;;;5.03;4.38;;;;;;;14.32;50.21;94123.59;5042228;28;20257;-70
2023/04/14 00:15:35;;;;;;;7.03;4.47;;;;;;;14.38;50.00;94107.88;5017321;28;20195;-70
2023/04/14 00:18:02;;;;;;;5.10;3.95;;;;;;;14.36;49.98;94114.81;5034351;28;20234;-70
2023/04/14 00:20:29;;;;;;;5.53;3.97;;;;;;;14.17;50.59;94115.16;5036277;28;20235;-70
2023/04/14 00:22:55;;;;;;;6.70;3.95;;;;;;;14.43;49.83;94111.00;5029188;28;20203;-68
2023/04/14 00:25:22;;;;;;;5.47;3.47;;;;;;;14.44;49.80;94097.28;5029998;28;20235;-69
2023/04/14 00:27:50;;;;;;;4.55;4.10;;;;;;;14.48;49.76;94114.06;5040972;28;20796;-69
2023/04/14 00:30:17;;;;;;;5.22;3.33;;;;;;;14.38;49.80;94106.13;5029621;28;20242;-69
2023/04/14 00:32:43;;;;;;;4.65;4.22;;;;;;;14.37;49.90;94116.44;5029063;28;20333;-69
2023/04/14 00:35:10;;;;;;;7.82;4.72;;;;;;;14.40;50.48;94106.03;5029223;28;20199;-70
2023/04/14 00:37:37;;;;;;;8.23;4.65;;;;;;;14.45;50.26;94109.97;5029021;28;20677;-68
2023/04/14 00:40:04;;;;;;;8.18;5.45;;;;;;;14.48;49.87;94111.53;5029569;28;20228;-68
2023/04/14 00:42:31;;;;;;;11.82;4.85;;;;;;;14.46;50.68;94103.13;5029267;28;20653;-67
2023/04/14 00:44:59;;;;;;;6.82;5.18;;;;;;;14.53;50.40;94096.72;5041846;28;20231;-69
2023/04/14 00:47:26;;;;;;;8.48;5.18;;;;;;;14.51;50.46;94096.00;5029212;28;20230;-70
2023/04/14 00:49:53;;;;;;;5.75;5.03;;;;;;;14.51;50.35;94108.78;5028679;28;20231;-69
2023/04/14 00:52:22;;;;;;;12.45;5.20;;;;;;;14.49;50.38;94105.50;5029271;28;20262;-69
2023/04/14 00:54:49;;;;;;;7.88;4.55;;;;;;;14.47;50.34;94102.22;5029022;28;20297;-70
2023/04/14 00:57:17;;;;;;;8.88;5.00;;;;;;;14.49;50.23;94092.72;5029317;28;20261;-70
2023/04/14 00:59:43;;;;;;;4.90;4.50;;;;;;;14.54;50.63;94095.78;5028682;28;20200;-68
2023/04/14 01:02:12;;;;;;;6.30;4.70;;;;;;;14.46;51.15;94092.91;5029162;28;20231;-70
2023/04/14 01:04:39;;;;;;;6.85;4.47;;;;;;;14.44;50.47;94092.19;5028821;28;20239;-69
2023/04/14 01:07:06;;;;;;;7.85;4.20;;;;;;;14.36;50.53;94095.19;5029185;28;20250;-68
2023/04/14 01:09:33;;;;;;;6.55;4.15;;;;;;;14.37;50.71;94094.25;5028867;28;20289;-69
2023/04/14 01:12:07;;;;;;;4.78;4.28;;;;;;;14.38;50.93;94095.09;5029778;28;20317;-69
2023/04/14 01:14:41;;;;;;;4.43;3.97;;;;;;;14.39;50.94;94086.50;5032915;28;20653;-69
2023/04/14 01:17:16;;;;;;;5.60;4.05;;;;;;;14.38;51.06;94083.13;5032050;28;20199;-68
2023/04/14 01:20:00;;;;;;;5.88;3.85;;;;;;;14.33;51.33;94094.59;5021021;28;20243;-68
2023/04/14 01:22:32;;;;;;;6.75;4.20;;;;;;;14.33;51.45;94099.69;5032257;28;20234;-69
2023/04/14 01:25:22;;;;;;;7.40;3.85;;;;;;;14.24;51.15;94094.25;5032762;28;20214;-71
2023/04/14 01:28:05;;;;;;;4.57;4.18;;;;;;;14.29;51.64;94086.28;5032237;28;20693;-69
2023/04/14 01:30:50;;;;;;;4.80;4.40;;;;;;;14.29;51.53;94079.44;5032274;28;20227;-69
2023/04/14 01:33:21;;;;;;;6.10;3.95;;;;;;;14.27;51.64;94088.94;5032569;28;20239;-69
2023/04/14 01:35:52;;;;;;;7.38;4.35;;;;;;;14.19;51.53;94091.16;5019694;28;20263;-69
2023/04/14 01:38:25;;;;;;;5.90;4.32;;;;;;;14.08;52.31;94085.09;5031917;28;20239;-70
2023/04/14 01:40:56;;;;;;;4.60;3.70;;;;;;;14.18;52.49;94086.94;5032475;28;20236;-69
2023/04/14 01:43:26;;;;;;;5.28;3.95;;;;;;;14.19;52.21;94092.88;5031823;28;20243;-69
2023/04/14 01:45:58;;;;;;;5.72;3.20;;;;;;;14.16;51.64;94093.06;5032255;28;20226;-69
2023/04/14 01:48:26;;;;;;;3.97;3.60;;;;;;;14.20;52.20;94089.41;5031782;28;20608;-69
2023/04/14 01:50:55;;;;;;;6.05;3.60;;;;;;;14.22;51.93;94077.34;5032312;28;20290;-68
2023/04/14 01:53:24;;;;;;;4.30;3.60;;;;;;;14.12;52.21;94078.84;5031590;28;20195;-68
2023/04/14 01:55:53;;;;;;;3.40;3.20;;;;;;;14.00;52.31;94088.09;5031960;28;20239;-69
2023/04/14 01:58:21;;;;;;;7.95;3.13;;;;;;;14.02;52.00;94081.16;5031470;28;20231;-69
2023/04/14 02:00:50;;;;;;;4.82;3.20;;;;;;;14.00;52.18;94077.91;5032391;28;20235;-69
2023/04/14 02:03:19;;;;;;;6.40;3.50;;;;;;;13.99;52.30;94081.38;5031538;28;20199;-69
2023/04/14 02:05:51;;;;;;;5.45;3.30;;;;;;;14.01;52.00;94088.94;5032021;28;20270;-66
2023/04/14 02:08:19;;;;;;;3.47;2.95;;;;;;;13.99;52.22;94091.56;5019883;28;20207;-68
2023/04/14 02:10:48;;;;;;;3.90;3.60;;;;;;;14.01;51.84;94094.03;5031125;28;20258;-68
2023/04/14 02:13:18;;;;;;;4.72;3.47;;;;;;;14.00;52.19;94092.41;5031902;28;20289;-69
2023/04/14 02:15:46;;;;;;;5.30;3.35;;;;;;;14.10;52.26;94084.06;5030959;28;20657;-68
2023/04/14 02:18:15;;;;;;;5.18;3.95;;;;;;;14.03;52.45;94087.91;5040422;28;20199;-69
2023/04/14 02:20:44;;;;;;;5.47;4.18;;;;;;;13.97;52.75;94103.63;5034624;28;20200;-69
2023/04/14 02:23:12;;;;;;;6.82;4.45;;;;;;;14.12;53.08;94087.31;5031124;28;20204;-69
2023/04/14 02:25:49;;;;;;;6.50;3.97;;;;;;;14.27;51.87;94088.13;5031340;28;20200;-70
2023/04/14 02:28:19;;;;;;;5.68;3.35;;;;;;;14.10;51.98;94096.03;5031435;28;20713;-69
2023/04/14 02:30:50;;;;;;;6.75;3.60;;;;;;;13.92;52.65;94088.56;5031156;28;20223;-69
2023/04/14 02:33:20;;;;;;;3.80;3.40;;;;;;;13.91;53.10;94097.16;5031050;28;20743;-69
2023/04/14 02:35:49;;;;;;;5.53;3.65;;;;;;;13.86;52.70;94080.47;5019380;28;20247;-69
2023/04/14 02:38:22;;;;;;;5.25;4.22;;;;;;;13.93;52.44;94079.19;5030964;28;20570;-69
2023/04/14 02:40:49;;;;;;;4.75;3.30;;;;;;;13.68;53.00;94082.44;5031058;28;20235;-70
2023/04/14 02:43:19;;;;;;;6.03;3.50;;;;;;;13.73;52.99;94082.16;5030500;28;20686;-69
2023/04/14 02:45:49;;;;;;;4.25;3.20;;;;;;;13.76;53.25;94084.53;5031060;28;20258;-70
2023/04/14 02:48:21;;;;;;;8.43;3.30;;;;;;;13.91;52.79;94086.94;5030811;28;20216;-68
2023/04/14 02:50:52;;;;;;;5.10;3.60;;;;;;;14.04;52.53;94071.69;5031213;28;20227;-68
2023/04/14 02:53:23;;;;;;;3.92;3.63;;;;;;;13.86;52.59;94073.63;5030511;28;20223;-68
2023/04/14 02:55:51;;;;;;;4.28;3.55;;;;;;;13.85;52.20;94068.63;5031205;28;20215;-69
2023/04/14 02:58:18;;;;;;;6.97;3.38;;;;;;;13.76;52.45;94058.97;5030699;28;20200;-68
2023/04/14 03:00:46;;;;;;;4.07;3.08;;;;;;;13.72;52.71;94062.63;5031277;28;20641;-68
2023/04/14 03:03:14;;;;;;;3.45;2.85;;;;;;;13.55;53.18;94061.13;5031568;28;20635;-69
2023/04/14 03:05:41;;;;;;;5.45;2.90;;;;;;;13.51;53.49;94065.59;5032818;28;20239;-71
2023/04/14 03:08:11;;;;;;;3.63;3.33;;;;;;;13.62;53.33;94063.19;5031136;28;20231;-71
2023/04/14 03:10:41;;;;;;;3.10;2.90;;;;;;;13.61;53.55;94065.84;5031896;28;20238;-69
2023/04/14 03:13:08;;;;;;;3.70;3.40;;;;;;;13.50;54.19;94068.22;5031171;28;20293;-69
2023/04/14 03:15:37;;;;;;;3.55;3.35;;;;;;;13.46;54.36;94067.59;5032344;28;20235;-70
2023/04/14 03:18:05;;;;;;;3.35;3.05;;;;;;;13.48;53.87;94058.13;5039170;28;20234;-70
2023/04/14 03:20:33;;;;;;;7.28;4.22;;;;;;;13.60;53.82;94054.00;5044643;28;20674;-70
2023/04/14 03:23:03;;;;;;;3.90;3.53;;;;;;;13.45;54.72;94065.97;5031062;28;20208;-72
2023/04/14 03:25:35;;;;;;;5.97;3.95;;;;;;;13.48;54.39;94083.63;5030774;28;20204;-65
2023/04/14 03:28:06;;;;;;;4.35;3.95;;;;;;;13.58;55.03;94056.66;5031040;28;20234;-68
2023/04/14 03:30:35;;;;;;;6.07;4.30;;;;;;;13.69;55.24;94053.44;5030608;28;20227;-72
2023/04/14 03:33:07;;;;;;;9.18;4.60;;;;;;;13.66;54.52;94040.03;5030715;28;20265;-69
2023/04/14 03:35:36;;;;;;;7.75;3.67;;;;;;;13.51;55.16;94029.03;5030387;28;20611;-69
2023/04/14 03:38:07;;;;;;;5.57;3.75;;;;;;;13.51;54.94;94014.53;5031002;28;20231;-68
2023/04/14 03:40:37;;;;;;;4.82;4.18;;;;;;;13.50;55.45;94018.00;5028393;28;20291;-69
2023/04/14 03:43:11;;;;;;;4.53;3.65;;;;;;;13.70;54.14;94013.41;5021527;28;20209;-70
2023/04/14 03:45:39;;;;;;;4.85;3.50;;;;;;;13.43;55.05;93991.22;5032184;28;20207;-70
2023/04/14 03:48:10;;;;;;;4.63;3.65;;;;;;;13.25;55.91;93993.16;5034325;28;20218;-70
2023/04/14 03:50:40;;;;;;;6.75;3.60;;;;;;;13.30;55.33;94003.09;5023130;28;20196;-72
2023/04/14 03:53:09;;;;;;;7.05;3.60;;;;;;;13.32;55.58;93998.72;5027316;28;20678;-68
2023/04/14 03:55:37;;;;;;;7.57;4.22;;;;;;;13.35;55.52;94001.09;5030343;28;20673;-70
2023/04/14 03:58:08;;;;;;;8.20;4.28;;;;;;;13.41;55.56;94003.25;5030750;28;20649;-70
2023/04/14 04:00:37;;;;;;;4.32;3.30;;;;;;;13.62;55.31;94004.47;5038533;28;20208;-68
2023/04/14 04:03:04;;;;;;;4.50;3.63;;;;;;;13.52;55.03;93998.31;5029791;28;20621;-70
2023/04/14 04:05:32;;;;;;;3.85;3.63;;;;;;;13.53;54.72;93997.41;5030062;28;20234;-70
2023/04/14 04:08:02;;;;;;;6.63;5.18;;;;;;;13.52;54.44;94003.44;5029961;28;20643;-69
2023/04/14 04:10:32;;;;;;;6.47;3.70;;;;;;;13.77;54.40;94005.28;5030098;28;20204;-70
2023/04/14 04:13:01;;;;;;;5.05;4.10;;;;;;;13.85;53.88;94003.06;5029760;28;20254;-69
2023/04/14 04:15:31;;;;;;;5.13;3.55;;;;;;;13.79;54.28;93994.97;5030119;28;20255;-70
2023/04/14 04:17:59;;;;;;;6.68;4.60;;;;;;;13.87;54.79;93990.16;5036420;28;20203;-68
2023/04/14 04:20:27;;;;;;;5.13;3.63;;;;;;;13.88;54.07;93981.59;5034931;28;20356;-70
2023/04/14 04:22:56;;;;;;;3.90;3.60;;;;;;;13.86;53.67;93988.53;5025041;28;20203;-67
2023/04/14 04:25:23;;;;;;;12.77;4.25;;;;;;;13.82;54.04;93993.03;5029596;28;20596;-69
2023/04/14 04:27:50;;;;;;;6.10;3.95;;;;;;;13.86;54.12;94008.97;5029957;28;20255;-69
2023/04/14 04:30:18;;;;;;;4.07;3.72;;;;;;;13.86;54.15;94020.00;5029243;28;20273;-70
2023/04/14 04:32:46;;;;;;;4.28;3.75;;;;;;;13.87;54.27;94018.25;5029596;28;20219;-70
2023/04/14 04:35:14;;;;;;;4.63;3.85;;;;;;;13.97;54.56;94021.88;5025407;28;20208;-69
2023/04/14 04:37:43;;;;;;;4.57;4.03;;;;;;;14.01;54.55;94025.88;5029874;28;20588;-70
2023/04/14 04:40:10;;;;;;;10.77;4.28;;;;;;;14.05;54.58;94032.44;5028931;28;20204;-69
2023/04/14 04:42:41;;;;;;;5.15;4.65;;;;;;;14.09;54.82;94041.56;5029590;28;20227;-71
2023/04/14 04:45:08;;;;;;;5.82;4.50;;;;;;;14.09;54.94;94044.13;5029810;28;20206;-70
2023/04/14 04:47:35;;;;;;;8.57;4.78;;;;;;;14.13;54.77;94048.09;5031621;28;20257;-71
2023/04/14 04:50:03;;;;;;;9.05;3.88;;;;;;;14.22;54.49;94047.50;5033620;28;20232;-71
2023/04/14 04:52:30;;;;;;;8.02;4.85;;;;;;;14.34;53.92;94029.78;5033349;28;20219;-69
2023/04/14 04:54:57;;;;;;;4.85;3.95;;;;;;;14.27;54.22;94014.81;5033410;28;20767;-70
2023/04/14 04:57:23;;;;;;;5.65;4.43;;;;;;;14.22;54.24;94016.84;5033497;28;20274;-69
2023/04/14 04:59:50;;;;;;;7.78;3.75;;;;;;;14.35;53.83;94016.09;5033015;28;20619;-73
2023/04/14 05:02:17;;;;;;;5.38;4.18;;;;;;;14.37;53.19;94004.00;5033216;28;20274;-72
2023/04/14 05:04:44;;;;;;;4.40;4.00;;;;;;;14.13;53.26;94001.28;5033144;28;20203;-72
2023/04/14 05:07:12;;;;;;;5.03;3.75;;;;;;;13.93;53.59;93995.72;5033439;28;20207;-76
2023/04/14 05:09:38;;;;;;;8.32;4.28;;;;;;;14.07;53.88;93982.09;5033218;28;20231;-72
2023/04/14 05:12:05;;;;;;;9.82;4.55;;;;;;;14.02;54.19;93984.09;5036211;28;20245;-73
2023/04/14 05:14:32;;;;;;;6.53;5.03;;;;;;;14.23;53.32;94004.91;5033419;28;20257;-75
2023/04/14 05:16:59;;;;;;;6.50;5.25;;;;;;;14.10;53.25;93996.41;5033367;28;20235;-73
2023/04/14 05:19:25;;;;;;;5.00;4.07;;;;;;;14.11;53.59;94009.03;5045729;28;20266;-73
2023/04/14 05:21:54;;;;;;;8.00;4.80;;;;;;;14.35;52.92;93995.63;5032687;28;20250;-71
2023/04/14 05:24:22;;;;;;;4.40;4.03;;;;;;;14.31;52.56;93984.78;5032829;28;20661;-73
2023/04/14 05:26:49;;;;;;;7.70;4.50;;;;;;;14.46;52.32;93977.88;5032791;28;20293;-68
2023/04/14 05:29:16;;;;;;;7.93;4.78;;;;;;;14.38;51.93;93969.84;5033422;28;20207;-72
2023/04/14 05:31:43;;;;;;;4.93;4.00;;;;;;;14.11;52.46;93970.72;5032482;28;20727;-71
2023/04/14 05:34:10;;;;;;;7.43;4.57;;;;;;;14.18;52.80;93959.19;5032015;28;20223;-70
2023/04/14 05:36:36;;;;;;;11.55;3.67;;;;;;;14.39;52.60;93940.81;5032537;28;20740;-72
2023/04/14 05:39:03;;;;;;;7.80;4.80;;;;;;;14.22;52.59;93941.94;5033289;28;20203;-71
2023/04/14 05:41:31;;;;;;;9.95;4.32;;;;;;;14.36;52.37;93951.25;5032732;28;20286;-72
2023/04/14 05:43:58;;;;;;;7.57;4.22;;;;;;;14.51;52.24;93950.28;5021986;28;20200;-69
2023/04/14 05:46:25;;;;;;;10.00;4.80;;;;;;;14.58;52.05;93943.84;5032680;28;20277;-70
2023/04/14 05:48:52;;;;;;;8.18;5.45;;;;;;;14.75;51.52;93937.59;5033172;28;20208;-73
2023/04/14 05:51:18;;;;;;;6.20;4.38;;;;;;;14.92;51.05;93935.50;5032220;28;20239;-70
2023/04/14 05:53:45;;;;;;;6.95;4.55;;;;;;;14.98;50.99;93932.53;5032919;28;20259;-71
2023/04/14 05:56:12;;;;;;;9.27;3.92;;;;;;;15.28;50.80;93951.81;5032272;28;20200;-71
2023/04/14 05:58:40;;;;;;;5.00;3.83;;;;;;;15.45;49.72;93933.53;5021086;28;20560;-71
2023/04/14 06:01:07;;;;;;;4.15;3.55;;;;;;;15.51;49.19;93933.13;5026771;28;20235;-71
2023/04/14 06:03:34;;;;;;;9.30;4.50;;;;;;;15.71;49.06;93947.09;5022163;28;20227;-72
2023/04/14 06:06:01;;;;;;;6.60;3.88;;;;;;;15.67;49.30;93943.13;5032139;28;20250;-70
2023/04/14 06:08:29;;;;;;;4.50;4.13;;;;;;;15.48;49.08;93915.41;5032424;28;20235;-70
2023/04/14 06:10:56;;;;;;;3.80;3.47;;;;;;;15.25;49.47;93922.16;5031689;28;20199;-71
2023/04/14 06:13:23;;;;;;;6.90;4.00;;;;;;;15.18;49.80;93890.22;5022765;28;20250;-71
2023/04/14 06:15:51;;;;;;;7.57;4.03;;;;;;;15.08;50.02;93916.56;5031683;28;20274;-70
2023/04/14 06:18:18;;;;;;;3.88;3.60;;;;;;;15.01;50.14;93907.66;5041557;28;20245;-70
2023/04/14 06:20:45;;;;;;;6.28;3.90;;;;;;;14.95;50.04;93898.69;5034412;28;20207;-70
2023/04/14 06:23:12;;;;;;;4.82;4.03;;;;;;;15.03;49.74;93893.03;5031987;28;20637;-71
2023/04/14 06:25:38;;;;;;;4.15;3.85;;;;;;;15.13;49.24;93876.09;5031817;28;20239;-72
2023/04/14 06:28:06;;;;;;;4.30;3.97;;;;;;;15.11;49.78;93890.75;5031809;28;20250;-71
2023/04/14 06:30:33;;;;;;;5.18;4.15;;;;;;;15.20;49.45;93872.19;5024092;28;20262;-68
2023/04/14 06:33:03;;;;;;;5.15;3.58;;;;;;;15.34;49.12;93872.06;5023017;28;20259;-70
2023/04/14 06:35:30;;;;;;;4.03;3.60;;;;;;;15.47;48.71;93865.13;5031467;28;20232;-70
2023/04/14 06:37:56;;;;;;;11.15;4.13;;;;;;;15.76;48.24;93850.25;5032068;28;20199;-71
2023/04/14 06:40:23;;;;;;;4.65;4.18;;;;;;;15.83;48.10;93855.75;5031467;28;20231;-70
2023/04/14 06:42:50;;;;;;;5.25;3.60;;;;;;;15.86;48.04;93855.50;5031790;28;20204;-71
2023/04/14 06:45:17;;;;;;;7.50;4.05;;;;;;;15.78;48.19;93845.03;5031553;28;20196;-70
2023/04/14 06:47:43;;;;;;;4.22;3.88;;;;;;;15.87;48.32;93854.56;5031817;28;20211;-72
2023/04/14 06:50:12;;;;;;;5.32;3.33;;;;;;;15.94;48.03;93818.16;5031220;28;20204;-70
2023/04/14 06:52:38;;;;;;;8.48;3.40;;;;;;;15.94;48.28;93817.34;5031420;28;20214;-72
2023/04/14 06:55:06;;;;;;;4.03;3.72;;;;;;;15.87;48.24;93800.78;5031280;28;20812;-71
2023/04/14 06:57:32;;;;;;;4.18;3.88;;;;;;;15.96;48.53;93800.13;5031404;28;20232;-70
2023/04/14 06:59:59;;;;;;;4.03;3.03;;;;;;;15.96;48.70;93805.22;5031161;28;20246;-71
2023/04/14 07:02:27;;;;;;;4.88;4.13;;;;;;;15.99;48.73;93792.19;5030988;28;20208;-69
2023/04/14 07:04:54;;;;;;;10.18;4.10;;;;;;;16.42;48.38;93783.81;5030987;28;20207;-72
2023/04/14 07:07:23;;;;;;;7.65;3.67;;;;;;;17.66;45.14;93817.63;5031239;28;20253;-69
2023/04/14 07:09:50;;;;;;;3.88;3.50;;;;;;;18.13;43.74;93810.34;5030588;28;20211;-70
2023/04/14 07:12:17;;;;;;;3.67;3.45;;;;;;;19.23;41.35;93812.13;5031321;28;20586;-73
2023/04/14 07:14:49;;;;;;;7.20;3.10;;;;;;;20.33;38.72;93797.94;5031311;28;20277;-72
2023/04/14 07:17:16;;;;;;;5.97;2.85;;;;;;;21.03;36.72;93783.66;5031344;28;20246;-72
2023/04/14 07:19:43;;;;;;;3.20;2.72;;;;;;;21.44;35.86;93794.44;5042623;28;20631;-70
2023/04/14 07:22:10;;;;;;;6.75;3.13;;;;;;;21.10;36.14;93776.13;5030297;28;20204;-72
2023/04/14 07:24:38;;;;;;;4.07;3.25;;;;;;;21.34;36.13;93783.34;5030953;28;20210;-71
2023/04/14 07:27:06;;;;;;;3.60;3.30;;;;;;;23.55;32.46;93779.25;5030573;28;20255;-73
2023/04/14 07:29:32;;;;;;;3.15;2.92;;;;;;;23.27;31.92;93796.84;5031382;28;20221;-72
2023/04/14 07:31:59;;;;;;;3.33;3.03;;;;;;;23.12;32.08;93782.88;5030174;28;20746;-72
2023/04/14 07:34:26;;;;;;;6.57;3.45;;;;;;;24.28;30.62;93785.25;5030994;28;20293;-74
2023/04/14 07:36:53;;;;;;;5.53;2.83;;;;;;;24.03;30.88;93775.84;5030359;28;21504;-73
2023/04/14 07:39:20;;;;;;;3.90;3.50;;;;;;;23.71;31.21;93768.91;5031129;28;20265;-75
2023/04/14 07:41:48;;;;;;;9.38;4.03;;;;;;;24.07;30.63;93774.56;5030109;28;20199;-73
2023/04/14 07:44:15;;;;;;;3.50;2.83;;;;;;;23.77;31.24;93770.03;5030914;28;20289;-73
2023/04/14 07:46:42;;;;;;;5.07;3.35;;;;;;;23.98;30.46;93757.38;5030365;28;20227;-72
2023/04/14 07:49:08;;;;;;;18.38;3.63;;;;;;;24.54;30.06;93766.84;5031042;28;20265;-72
2023/04/14 07:51:35;;;;;;;5.43;3.28;;;;;;;25.86;28.32;93769.44;5029900;28;20199;-73
2023/04/14 07:54:02;;;;;;;7.50;3.70;;;;;;;27.71;25.63;93766.72;5030860;28;20230;-73
2023/04/14 07:56:29;;;;;;;9.27;3.25;;;;;;;28.69;24.64;93744.94;5029930;28;20200;-73
2023/04/14 07:58:57;;;;;;;3.95;3.40;;;;;;;29.24;23.99;93743.97;5030612;28;20207;-73
2023/04/14 08:01:24;;;;;;;4.38;3.30;;;;;;;29.75;23.19;93733.84;5029810;28;20273;-73
2023/04/14 08:03:50;;;;;;;7.90;3.85;;;;;;;29.63;23.54;93747.75;5030538;28;20231;-71
2023/04/14 08:06:17;;;;;;;11.70;3.33;;;;;;;29.06;23.79;93741.91;5030322;28;20235;-72
2023/04/14 08:08:44;;;;;;;5.45;2.95;;;;;;;29.74;23.30;93729.59;5030719;28;20300;-73
2023/04/14 08:11:11;;;;;;;9.45;3.35;;;;;;;28.85;24.13;93725.53;5030165;28;20632;-72
2023/04/14 08:13:37;;;;;;;4.00;3.13;;;;;;;27.77;24.74;93742.44;5030583;28;20258;-72
2023/04/14 08:16:05;;;;;;;7.30;2.83;;;;;;;27.04;25.52;93748.69;5030254;28;20307;-70
2023/04/14 08:18:32;;;;;;;6.80;3.08;;;;;;;27.23;25.49;93723.81;5030113;28;20204;-72
2023/04/14 08:20:59;;;;;;;7.57;3.60;;;;;;;26.61;25.96;93732.91;5029069;28;20239;-73
2023/04/14 08:23:26;;;;;;;10.27;2.80;;;;;;;25.67;27.05;93749.91;5030213;28;20560;-73
2023/04/14 08:25:53;;;;;;;10.38;3.30;;;;;;;25.27;27.76;93734.53;5029984;28;20204;-73
2023/04/14 08:28:20;;;;;;;5.63;2.80;;;;;;;25.49;27.75;93759.75;5030208;28;20259;-72
2023/04/14 08:30:48;;;;;;;5.30;3.47;;;;;;;25.33;27.78;93750.28;5029950;28;20279;-71
2023/04/14 08:33:16;;;;;;;11.95;2.65;;;;;;;25.46;27.80;93741.91;5030135;28;20314;-72
2023/04/14 08:35:43;;;;;;;9.10;3.65;;;;;;;24.78;28.73;93752.97;5029176;28;20227;-72
2023/04/14 08:38:10;;;;;;;3.97;2.83;;;;;;;25.17;27.98;93752.19;5030055;28;20211;-72
2023/04/14 08:40:39;;;;;;;6.03;2.67;;;;;;;25.96;26.74;93774.41;5029903;28;20210;-71
2023/04/14 08:43:07;;;;;;;10.57;2.75;;;;;;;26.38;26.38;93763.47;5029926;28;20200;-68
2023/04/14 08:45:34;;;;;;;7.65;2.65;;;;;;;26.66;26.14;93763.66;5029981;28;20338;-70
2023/04/14 08:48:02;;;;;;;6.82;2.60;;;;;;;26.75;25.94;93770.38;5029557;28;20221;-74
2023/04/14 08:50:36;;;;;;;5.43;2.88;;;;;;;27.02;25.92;93788.00;5029634;28;20230;-70
2023/04/14 08:53:04;;;;;;;9.27;3.17;;;;;;;26.47;26.57;93766.81;5029904;28;20291;-71
2023/04/14 08:55:32;;;;;;;4.05;2.30;;;;;;;26.34;26.51;93783.84;5030187;28;20270;-70
2023/04/14 08:58:01;;;;;;;10.57;3.33;;;;;;;28.88;24.16;93765.19;5030035;28;20276;-73
2023/04/14 09:00:28;;;;;;;11.45;4.85;;;;;;;32.30;21.26;93773.59;5029931;28;20679;-72
2023/04/14 09:02:56;;;;;;;19.73;5.65;;;;;;;35.04;18.07;93762.44;5029609;28;20289;-72
2023/04/14 09:05:23;;;;;;;13.73;3.47;;;;;;;35.89;15.65;93787.34;5029876;28;20239;-72
2023/04/14 09:07:52;;;;;;;18.42;3.60;;;;;;;33.86;15.84;93756.50;5029281;28;20200;-73
2023/04/14 09:10:21;;;;;;;15.05;3.42;;;;;;;31.63;17.75;93774.25;5029905;28;20208;-70
2023/04/14 09:12:48;;;;;;;15.63;4.30;;;;;;;31.40;17.49;93749.31;5029242;28;20203;-69
2023/04/14 09:15:15;;;;;;;18.13;3.10;;;;;;;31.64;18.01;93758.25;5030049;28;20643;-70
2023/04/14 09:17:42;;;;;;;16.77;3.97;;;;;;;31.96;17.75;93734.63;5033898;28;20195;-70
2023/04/14 09:20:11;;;;;;;20.13;3.53;;;;;;;31.60;18.72;93740.50;5037338;28;20266;-70
2023/04/14 09:22:38;;;;;;;23.58;3.58;;;;;;;31.46;18.54;93745.03;5029277;28;20584;-70
2023/04/14 09:25:08;;;;;;;19.48;4.20;;;;;;;31.33;18.99;93731.97;5029694;28;20234;-70
2023/04/14 09:27:35;;;;;;;31.30;6.93;;;;;;;31.34;19.06;93752.78;5029631;28;20223;-71
2023/04/14 09:30:02;;;;;;;23.13;3.70;;;;;;;30.84;20.16;93748.31;5029266;28;20267;-68
2023/04/14 09:32:29;;;;;;;21.92;3.92;;;;;;;30.46;19.96;93755.00;5029062;28;20217;-70
2023/04/14 09:34:56;;;;;;;18.60;3.03;;;;;;;30.29;20.34;93764.31;5033033;28;20255;-71
2023/04/14 09:37:23;;;;;;;16.52;4.03;;;;;;;30.10;20.91;93752.03;5032598;28;20653;-70
2023/04/14 09:39:51;;;;;;;14.18;3.55;;;;;;;29.46;21.30;93752.53;5032602;28;20304;-70
2023/04/14 09:42:20;;;;;;;15.70;3.60;;;;;;;29.44;21.38;93765.03;5032803;28;20266;-70
2023/04/14 09:44:54;;;;;;;17.83;3.63;;;;;;;29.34;21.57;93790.72;5032660;28;20207;-70
2023/04/14 09:47:23;;;;;;;16.67;4.53;;;;;;;28.79;21.95;93754.03;5032975;28;20221;-69
2023/04/14 09:49:57;;;;;;;39.55;5.40;;;;;;;27.98;23.11;93775.56;5032501;28;20204;-69
2023/04/14 09:52:37;;;;;;;18.50;4.00;;;;;;;27.01;23.30;93762.91;5033197;28;20198;-71
2023/04/14 09:55:06;;;;;;;25.30;4.00;;;;;;;27.04;23.42;93798.25;5032176;28;20234;-69
2023/04/14 09:57:37;;;;;;;30.02;4.45;;;;;;;27.03;23.65;93792.22;5032830;28;20212;-70
2023/04/14 10:00:17;;;;;;;26.48;4.28;;;;;;;27.15;23.41;93810.03;5032763;28;20200;-69
2023/04/14 10:02:48;;;;;;;23.83;5.30;;;;;;;27.17;23.32;93808.03;5032017;28;20207;-71
2023/04/14 10:05:15;;;;;;;32.30;9.10;;;;;;;27.40;24.00;93808.72;5032562;28;20613;-68
2023/04/14 10:07:42;;;;;;;25.15;4.53;;;;;;;27.73;24.17;93829.94;5032413;28;20317;-70
2023/04/14 10:10:12;;;;;;;23.42;3.58;;;;;;;27.59;23.45;93839.47;5032748;28;20233;-70
2023/04/14 10:12:41;;;;;;;15.98;4.00;;;;;;;27.18;23.97;93857.41;5031922;28;20754;-71
2023/04/14 10:15:09;;;;;;;26.92;4.78;;;;;;;27.26;24.15;93870.34;5032481;28;20234;-71
2023/04/14 10:17:37;;;;;;;20.85;3.50;;;;;;;27.42;23.90;93858.91;5035323;28;20676;-70
2023/04/14 10:20:06;;;;;;;21.55;3.63;;;;;;;26.51;24.18;93883.47;5040938;28;20210;-72
2023/04/14 10:22:33;;;;;;;13.63;4.47;;;;;;;25.60;25.77;93878.22;5032379;28;20200;-68
2023/04/14 10:25:00;;;;;;;17.80;4.28;;;;;;;25.46;26.19;93892.78;5032341;28;20262;-69
2023/04/14 10:27:28;;;;;;;20.88;4.28;;;;;;;25.55;26.84;93929.94;5032255;28;20603;-72
2023/04/14 10:29:56;;;;;;;14.35;3.95;;;;;;;25.79;26.64;93934.25;5031881;28;20212;-70
2023/04/14 10:32:26;;;;;;;14.93;3.92;;;;;;;25.01;27.02;93940.19;5031929;28;20200;-72
2023/04/14 10:35:00;;;;;;;12.80;3.80;;;;;;;24.10;29.32;93992.25;5031961;28;20353;-69
2023/04/14 10:37:27;;;;;;;22.95;4.25;;;;;;;23.17;32.30;93982.78;5020017;28;20235;-71
2023/04/14 10:39:58;;;;;;;16.25;5.43;;;;;;;22.83;33.96;94012.03;5031656;28;20227;-68
2023/04/14 10:42:25;;;;;;;9.15;5.45;;;;;;;22.57;36.25;94055.16;5032110;28;20326;-69
2023/04/14 10:45:07;;;;;;;4.20;2.85;;;;;;;21.94;38.65;94091.34;5030542;28;20239;-73
2023/04/14 10:47:35;;;;;;;5.13;2.55;;;;;;;21.50;39.50;94098.88;5032276;28;20591;-69
2023/04/14 10:50:13;;;;;;;2.17;1.33;;;;;;;21.00;40.17;94118.91;5031069;28;20196;-70
2023/04/14 10:52:49;;;;;;;4.00;1.60;;;;;;;20.43;40.19;94135.19;5028533;28;20227;-69
2023/04/14 10:55:16;;;;;;;5.20;1.30;;;;;;;20.06;41.28;94143.44;5029959;28;20219;-71
2023/04/14 10:57:45;;;;;;;2.78;1.10;;;;;;;19.79;41.49;94153.53;5029725;28;20207;-70
2023/04/14 11:00:27;;;;;;;4.40;0.80;;;;;;;19.30;40.87;94170.47;5017909;28;20199;-69
2023/04/14 11:02:56;;;;;;;1.98;0.80;;;;;;;19.19;40.77;94194.50;5029426;28;20199;-69
2023/04/14 11:05:23;;;;;;;3.10;0.60;;;;;;;18.69;40.83;94208.84;5029558;28;20204;-71
2023/04/14 11:07:56;;;;;;;0.47;0.47;;;;;;;18.26;42.03;94206.19;5029522;28;20214;-69
2023/04/14 11:10:30;;;;;;;0.70;0.70;;;;;;;17.87;42.42;94210.03;5031364;28;20297;-73
2023/04/14 11:13:00;;;;;;;1.40;0.63;;;;;;;17.75;43.01;94226.41;5030947;28;20232;-70
2023/04/14 11:15:50;;;;;;;0.80;0.80;;;;;;;17.46;43.66;94241.34;5031236;28;20255;-69
2023/04/14 11:18:31;;;;;;;1.25;0.60;;;;;;;17.36;44.06;94246.34;5039243;28;20210;-70
2023/04/14 11:21:03;;;;;;;1.13;0.70;;;;;;;17.40;43.92;94255.47;5031238;28;20211;-70
2023/04/14 11:23:29;;;;;;;1.40;1.30;;;;;;;17.36;44.37;94248.91;5031159;28;20231;-71
2023/04/14 11:25:57;;;;;;;2.10;2.00;;;;;;;17.37;44.80;94247.97;5030721;28;20200;-70
2023/04/14 11:28:31;;;;;;;2.08;1.95;;;;;;;17.50;44.36;94248.72;5030649;28;20763;-68
2023/04/14 11:31:01;;;;;;;1.38;1.20;;;;;;;17.63;43.56;94249.44;5019049;28;20638;-70
2023/04/14 11:33:29;;;;;;;1.02;1.02;;;;;;;17.70;42.49;94259.31;5030474;28;20211;-70
2023/04/14 11:35:57;;;;;;;4.07;1.48;;;;;;;17.67;42.00;94279.16;5021123;28;20231;-70
2023/04/14 11:38:24;;;;;;;1.17;0.80;;;;;;;17.56;41.94;94291.16;5030503;28;20211;-69